Pagina principale
METAR-TAF:

METAR-TAF

Aeroporti :

Homer, Alaska, Stati Uniti

latitudine: 59-39N, longitudine: 151-29W, altezza: 26 m

Osservazione

Il bollettino è stato emesso 49 minuti fa, alle 23:00 UTC
Vento calmo
Temperature 5°C
Umidità 93%
Pressione 994 hPa
Visibilità: 16.1 km
Poco nuvoloso ad un'altezza di 700 ft
Poco nuvoloso ad un'altezza di 1600 ft
Cielo coperto ad un'altezza di 2300 ft

METAR: PAHO 202300Z 00000KT 10SM FEW007 FEW016 OVC023 05/04 A2935 RMK AO2 T00500039

Ora: 14:49 (23:49 UTC)

Previsione

Il bollettino è stato emesso 22 minuti fa, alle 23:27 UTC
Previsione valida dal 21 alle 00 UTC al 21 alle 24 UTC
Vento 6 kt da ovest/sud-ovest
Visibilità: 10 km
Cielo coperto ad un'altezza di 1500 ft

TAF: PAHO 202327Z 2100/2124 25006KT P6SM OVC015

Osservazioni e previsioni meteorologiche di più di 4000 aeroporti (messaggi METAR e TAF).

Le stazioni disponibili sono rappresentate dai dischi gialli e rossi sulla carta.

Puntare il mouse per vedere il nome della stazione.

Clicca sopra per visualizzare le osservazioni e previsioni meteorologiche.

Per cambiare la mappa : fare clic sui pulsanti verdi con una croce nera per ingrandire, il pulsante verde con un trattino per diminuire, o sulla freccia verde per le mappe adiacenti.


METAR-TAF: